Tiempo atmosférico en la estación meteorológica de Munera, Albacete (918 m.)



Fecha
DESCASC
Temp. máxima en grados centígrados (hora)
DESCASC
Temp. mínima en grados centígrados (hora)
DESCASC
Temp. media en grados centígrados
DESCASC
Racha de viento máxima en m/sg (hora)
DESCASC
Velocidad máxima media en intervalos de 10 minutos(hora)
DESCASC
Precipitaciones diarias en mm
DESCASC
Precipitaciones de 00:00 a 06:00 en mm
DESCASC
Precipitaciones de 06:00 a 12:00 en mm
DESCASC
Precipitaciones de 12:00 a 18:00 en mm
DESCASC
Precipitaciones de 18:00 a 24:00 en mm
DESCASC
16-06-2019 26.7 (15:10) 5.8 (06:50) 16.3 8.89 (15:50) 3.61 (15:50) 0 0 0 0 0
15-06-2019 25.8 (17:00) 5.3 (07:10) 15.5 11.39 (19:20) 3.06 (16:10) 0 0 0 0 0
14-06-2019 26.2 (16:10) 14.8 (23:59) 20.5 11.11 (19:40) 4.72 (16:00) 0 0 0 0 0
13-06-2019 25.8 (16:10) 9.6 (00:00) 17.7 8.33 (19:50) 3.89 (19:50) 0 0 0 0 0
12-06-2019 25 (16:30) 7.2 (00:00) 16.1 7.22 (15:50) 3.06 (13:50) 0 0 0 0 0
11-06-2019 23.4 (14:20) 10.4 (00:00) 16.9 10.28 (16:40) 5.28 (17:50) 0 0 0 0 0
10-06-2019 25.8 (16:20) 7.5 (00:00) 16.6 7.78 (17:00) 3.89 (18:20) 0 0 0 0 0
09-06-2019 27.9 (16:50) 14 (00:00) 20.9 8.33 (18:20) 3.61 (11:00) 0 0 0 0 0
08-06-2019 27.1 (17:00) 3.7 (00:00) 15.4 10.28 (18:00) 3.89 (18:00) 0 0 0 0 0
07-06-2019 23.3 (17:10) 7.7 (00:00) 15.5 10.83 (12:40) 4.17 (12:40) 0 0 0 0 0
06-06-2019 26.7 (16:30) 3.7 (00:00) 15.2 10.56 (17:40) 4.44 (19:10) 0 0 0 0 0
05-06-2019 20.8 (16:00) 8.7 (00:00) 14.7 14.44 (11:30) 5 (09:30) 0 0 0 0 0
04-06-2019 30.2 (16:20) 14.5 (00:00) 22.4 9.72 (17:00) 4.72 (13:30) 0 0 0 0 0
03-06-2019 32.5 (17:30) 15.5 (00:00) 24 8.89 (18:40) 3.33 (10:30) 0 0 0 0 0
02-06-2019 30.3 (17:10) 8.3 (00:00) 19.3 7.22 (18:40) 2.5 (14:40) 0 0 0 0 0
01-06-2019 -- (--) -- (--) -- -- (--) -- (--) -- 0 -- 0 0
31-05-2019 26.7 (16:50) 6.9 (00:00) 16.8 7.22 (18:10) 2.78 (13:20) 0 0 0 0 0
30-05-2019 24.8 (16:20) 6.5 (00:00) 15.6 7.5 (12:30) 3.33 (17:10) 0 0 0 0 0
29-05-2019 23.8 (19:10) 3.6 (00:00) 13.7 6.67 (22:30) 3.06 (22:30) 0 0 0 0 0
28-05-2019 25.6 (16:40) 7.8 (00:00) 16.7 8.89 (17:20) 4.17 (15:00) 0 0 0 0 0
27-05-2019 26.5 (16:40) 5.2 (00:00) 15.8 8.06 (15:30) 3.89 (15:30) 0 0 0 0 0
26-05-2019 23.1 (18:20) 4.9 (00:00) 14 8.06 (17:50) 4.17 (18:10) 0 0 0 0 0
25-05-2019 21.8 (17:10) 4.7 (00:00) 13.2 6.67 (16:30) 3.61 (13:20) 0 0 0 0 0
24-05-2019 22.9 (13:30) 10.9 (00:00) 16.9 12.78 (16:10) 5.28 (16:10) 0 0 0 0 0
23-05-2019 26.3 (18:00) 10.9 (00:00) 18.6 6.67 (13:20) 2.78 (15:10) 0 0 0 0 0
22-05-2019 24.8 (17:00) 10.2 (00:00) 17.5 4.72 (08:20) 2.5 (15:20) 0 0 0 0 0

Gráficas

Temp. máximas Temp. mínimas Temp. medias Precipitaciones Rachas de viento máximas Velocidades máximas media en intervalos de 10 minutos

Datos horarios

Fecha y hora oficial Temperatura (ºC) Velocidad del viento (km/h) Dirección del viento Racha (km/h) Dirección de racha Precipitación (mm) Presión (hPa) Tendencia (hPa) Humedad (%)
2019-06-20 23:00:00 -- -- -- -- -- -- -- -- --
2019-06-20 22:00:00 22.7 6 Sudoeste 13 Sudoeste 0 -- -- 33
2019-06-20 21:00:00 26.5 6 Sudoeste 24 Sudoeste 0 -- -- 27
2019-06-20 20:00:00 29 8 Sudoeste 26 Oeste 0 -- -- 21
2019-06-20 19:00:00 30.3 8 Sudoeste 25 Sudoeste 0 -- -- 18
2019-06-20 18:00:00 30.7 8 Sudoeste 26 Sudoeste 0 -- -- 21
2019-06-20 17:00:00 30.7 10 Sudoeste 23 Oeste 0 -- -- 23
2019-06-20 16:00:00 30.2 10 Sudoeste 31 Oeste 0 -- -- 23
2019-06-20 15:00:00 29 6 Oeste 22 Sur 0 -- -- 24
2019-06-20 14:00:00 26.9 5 Este 18 Norte 0 -- -- 29
2019-06-20 13:00:00 25.8 6 Norte 17 Noroeste 0 -- -- 34
2019-06-20 12:00:00 24.3 4 Este 15 Noroeste 0 -- -- 41
2019-06-20 11:00:00 22.2 6 Norte 13 Noroeste 0 -- -- 47
2019-06-20 10:00:00 20.8 6 Noroeste 12 Noroeste 0 -- -- 51
2019-06-20 09:00:00 18.4 4 Noroeste 9 Noroeste 0 -- -- 59
2019-06-20 08:00:00 11.1 5 Sur 9 Sur 0 -- -- 82
2019-06-20 07:00:00 8.4 4 Sur 9 Sur 0 -- -- 87
2019-06-20 06:00:00 8.7 5 Sur 10 Sur 0 -- -- 84
2019-06-20 05:00:00 9.3 5 Sur 9 Sur 0 -- -- 81
2019-06-20 04:00:00 10.3 4 Sur 8 Sur 0 -- -- 78
2019-06-20 03:00:00 11.6 5 Sur 8 Sur 0 -- -- 72
2019-06-20 02:00:00 13.1 4 Sur 9 Oeste 0 -- -- 67
2019-06-20 01:00:00 13.9 3 Noroeste 9 Noroeste 0 -- -- 63
2019-06-20 00:00:00 15.5 0 Calma 6 Oeste 0 -- -- 58
2019-06-19 23:00:00 18.6 0 Calma 7 Oeste 0 -- -- 49
2019-06-19 22:00:00 -- -- -- -- -- -- -- -- --
2019-06-19 21:00:00 -- -- -- -- -- -- -- -- --
2019-06-19 20:00:00 -- -- -- -- -- -- -- -- --
2019-06-19 19:00:00 -- -- -- -- -- -- -- -- --
2019-06-19 18:00:00 -- -- -- -- -- -- -- -- --
2019-06-19 17:00:00 -- -- -- -- -- -- -- -- --
2019-06-19 16:00:00 -- -- -- -- -- -- -- -- --
2019-06-19 15:00:00 -- -- -- -- -- -- -- -- --
2019-06-19 14:00:00 -- -- -- -- -- -- -- -- --
2019-06-19 13:00:00 25.8 9 Sudoeste 24 Oeste 0 -- -- 38
2019-06-19 12:00:00 23.8 8 Sudoeste 22 Noroeste 0 -- -- 45
2019-06-19 11:00:00 21.8 9 Oeste 21 Noroeste 0 -- -- 53
2019-06-19 10:00:00 -- -- -- -- -- -- -- -- --
2019-06-19 09:00:00 18.9 6 Sudoeste 19 Sudoeste 0 -- -- 66
2019-06-19 08:00:00 15.4 7 Sudoeste 18 Sudoeste 0 -- -- 77
2019-06-19 07:00:00 12.2 6 Sur 10 Sur 0 -- -- 78
2019-06-19 06:00:00 12.8 5 Sur 13 Sudoeste 0 -- -- 70
2019-06-19 05:00:00 13.2 4 Sudoeste 15 Sudoeste 0 -- -- 62
2019-06-19 04:00:00 13.3 6 Sur 14 Sudoeste 0 -- -- 52
2019-06-19 03:00:00 -- -- -- -- -- -- -- -- --
2019-06-19 02:00:00 13.1 6 Sur 13 Sur 0 -- -- 41
2019-06-19 01:00:00 14.2 4 Sur 15 Sur 0 -- -- 34
2019-06-19 00:00:00 15.5 5 Sudoeste 14 Sudoeste 0 -- -- 31
2019-06-18 23:00:00 -- -- -- -- -- -- -- -- --
2019-06-18 22:00:00 -- -- -- -- -- -- -- -- --
2019-06-18 21:00:00 -- -- -- -- -- -- -- -- --
2019-06-18 20:00:00 -- -- -- -- -- -- -- -- --
2019-06-18 19:00:00 -- -- -- -- -- -- -- -- --
2019-06-18 18:00:00 30.8 14 Oeste 38 Oeste 0 -- -- 15
2019-06-18 17:00:00 31.4 14 Sudoeste 36 Sudoeste 0 -- -- 17
2019-06-18 16:00:00 31.5 14 Sudoeste 32 Oeste 0 -- -- 18
2019-06-18 15:00:00 30.9 12 Sudoeste 39 Sudoeste 0 -- -- 22
2019-06-18 14:00:00 30.4 12 Sudoeste 30 Sudoeste 0 -- -- 24
2019-06-18 13:00:00 29.1 9 Sur 33 Oeste 0 -- -- 27
2019-06-18 12:00:00 27.6 7 Sur 18 Sudoeste 0 -- -- 30
2019-06-18 11:00:00 26.1 5 Sudoeste 17 Oeste 0 -- -- 34
2019-06-18 10:00:00 23.5 7 Sudoeste 18 Sudoeste 0 -- -- 36
2019-06-18 09:00:00 21.4 8 Sudoeste 23 Sudoeste 0 -- -- 43
2019-06-18 08:00:00 16.7 6 Sudoeste 16 Sudoeste 0 -- -- 59
2019-06-18 07:00:00 13 5 Sur 11 Sur 0 -- -- 63
2019-06-18 06:00:00 12.7 6 Sur 10 Sur 0 -- -- 61
2019-06-18 05:00:00 13.4 5 Sur 9 Sudoeste 0 -- -- 58
2019-06-18 04:00:00 14.5 5 Sur 8 Sur 0 -- -- 55
2019-06-18 03:00:00 15.8 3 Sur 8 Sur 0 -- -- 53
2019-06-18 02:00:00 17.3 3 Sur 7 Sur 0 -- -- 48
2019-06-18 01:00:00 19.1 5 Sur 13 Sur 0 -- -- 43
2019-06-18 00:00:00 20 5 Sur 12 Sur 0 -- -- 42
2019-06-17 23:00:00 20.4 4 Sur 10 Sur 0 -- -- 44
2019-06-17 22:00:00 23.9 3 Sur 19 Sur 0 -- -- 35
2019-06-17 21:00:00 27.1 7 Sudeste 24 Este 0 -- -- 28
2019-06-17 20:00:00 29 10 Este 25 Norte 0 -- -- 25
2019-06-17 19:00:00 30.5 3 Sudeste 19 Sudeste 0 -- -- 21
2019-06-17 18:00:00 31.5 5 Sur 23 Sur 0 -- -- 21
2019-06-17 17:00:00 31.2 6 Sudoeste 21 Sur 0 -- -- 20
2019-06-17 16:00:00 30.7 12 Oeste 22 Oeste 0 -- -- 22
2019-06-17 15:00:00 29.5 4 Sudeste 24 Sur 0 -- -- 24
2019-06-17 14:00:00 28.9 8 Oeste 22 Oeste 0 -- -- 25
2019-06-17 13:00:00 26.8 5 Sudeste 15 Sur 0 -- -- 28
2019-06-17 12:00:00 25.3 4 Noroeste 15 Noroeste 0 -- -- 30
2019-06-17 11:00:00 24.2 6 Noroeste 17 Oeste 0 -- -- 33
2019-06-17 10:00:00 22.3 8 Sudoeste 23 Sudoeste 0 -- -- 38
2019-06-17 09:00:00 19 10 Sudoeste 21 Sudoeste 0 -- -- 50
2019-06-17 08:00:00 14.9 8 Sudoeste 19 Sur 0 -- -- 62
2019-06-17 07:00:00 12.8 8 Sur 17 Sudoeste 0 -- -- 65
2019-06-17 06:00:00 13.4 9 Sur 18 Sur 0 -- -- 61
2019-06-17 05:00:00 12.1 7 Sur 15 Sudoeste 0 -- -- 55
2019-06-17 04:00:00 11.9 6 Sur 12 Sur 0 -- -- 54
2019-06-17 03:00:00 12.9 5 Sur 12 Sur 0 -- -- 49
2019-06-17 02:00:00 13.4 6 Sur 10 Sur 0 -- -- 51
2019-06-17 01:00:00 14.3 4 Sur 10 Sur 0 -- -- 45
2019-06-17 00:00:00 14.9 3 Sur 6 Sur 0 -- -- 45
2019-06-16 23:00:00 17.2 4 Sur 6 Sudoeste 0 -- -- 39
2019-06-16 22:00:00 20.9 0 Calma 21 Oeste 0 -- -- 30
2019-06-16 21:00:00 22.4 2 Sur 17 Este 0 -- -- 40
2019-06-16 20:00:00 24.1 6 Nordeste 24 Nordeste 0 -- -- 35
2019-06-16 19:00:00 25.5 6 Este 25 Este 0 -- -- 33
2019-06-16 18:00:00 25.8 7 Este 24 Sudeste 0 -- -- 32
2019-06-16 17:00:00 25.9 8 Este 28 Sudeste 0 -- -- 30
2019-06-16 16:00:00 26.3 10 Este 32 Este 0 -- -- 28
2019-06-16 15:00:00 26.3 9 Este 27 Este 0 -- -- 29
2019-06-16 14:00:00 25.5 8 Este 22 Nordeste 0 -- -- 31
2019-06-16 13:00:00 22.9 10 Este 23 Nordeste 0 -- -- 37
2019-06-16 12:00:00 22.1 8 Este 24 Este 0 -- -- 43
2019-06-16 11:00:00 20.2 9 Este 18 Sudeste 0 -- -- 49
2019-06-16 10:00:00 18.5 4 Este 20 Este 0 -- -- 52
2019-06-16 09:00:00 17.5 6 Sudeste 18 Sudeste 0 -- -- 53
2019-06-16 08:00:00 9.1 3 Sur 12 Sudeste 0 -- -- 81
2019-06-16 07:00:00 5.9 0 Calma 5 Sur 0 -- -- 77
2019-06-16 06:00:00 6.6 3 Sur 7 Sur 0 -- -- 69
2019-06-16 05:00:00 6.9 5 Sur 7 Sur 0 -- -- 68
2019-06-16 04:00:00 6.8 5 Sur 9 Sur 0 -- -- 67
2019-06-16 03:00:00 7.6 5 Sur 8 Sudoeste 0 -- -- 64
2019-06-16 02:00:00 8.1 4 Sur 8 Sur 0 -- -- 61
2019-06-16 01:00:00 9.1 5 Sur 10 Sur 0 -- -- 57
2019-06-16 00:00:00 10.5 5 Sur 9 Sur 0 -- -- 54
2019-06-15 23:00:00 13.2 4 Sur 8 Sur 0 -- -- 45
2019-06-15 22:00:00 17.9 0 Calma 14 Noroeste 0 -- -- 33
2019-06-15 21:00:00 21.6 6 Norte 21 Norte 0 -- -- 28
2019-06-15 20:00:00 23.8 9 Noroeste 41 Norte 0 -- -- 26
2019-06-15 19:00:00 25.2 7 Oeste 21 Noroeste 0 -- -- 23
2019-06-15 18:00:00 25.5 8 Oeste 23 Oeste 0 -- -- 22
2019-06-15 17:00:00 25.8 10 Oeste 24 Oeste 0 -- -- 22
2019-06-15 16:00:00 24.2 9 Noroeste 26 Oeste 0 -- -- 29
2019-06-15 15:00:00 23.7 7 Oeste 23 Noroeste 0 -- -- 29
2019-06-15 14:00:00 22.3 7 Oeste 26 Oeste 0 -- -- 33
2019-06-15 13:00:00 20.6 10 Noroeste 21 Oeste 0 -- -- 36
2019-06-15 12:00:00 19 8 Oeste 17 Nordeste 0 -- -- 41
2019-06-15 11:00:00 16.7 6 Noroeste 19 Oeste 0 -- -- 45
2019-06-15 10:00:00 15.2 6 Noroeste 15 Noroeste 0 -- -- 50
2019-06-15 09:00:00 13.7 5 Noroeste 13 Noroeste 0 -- -- 55
2019-06-15 08:00:00 7.9 5 Sur 8 Sur 0 -- -- 74
2019-06-15 07:00:00 5.4 4 Sur 8 Sur 0 -- -- 78
2019-06-15 06:00:00 6.3 5 Sur 8 Sur 0 -- -- 72
2019-06-15 05:00:00 8.4 4 Sur 12 Sudoeste 0 -- -- 66
2019-06-15 04:00:00 10.5 4 Sudoeste 13 Oeste 0 -- -- 58
2019-06-15 03:00:00 11.4 3 Sudoeste 14 Oeste 0 -- -- 56
2019-06-15 02:00:00 11.9 4 Sudoeste 13 Oeste 0 -- -- 52
2019-06-15 01:00:00 13.2 4 Sudoeste 15 Oeste 0 -- -- 49
2019-06-15 00:00:00 14.8 6 Oeste 21 Sudoeste 0 -- -- 45
2019-06-14 23:00:00 16.3 8 Sudoeste 21 Oeste 0 -- -- 40
2019-06-14 22:00:00 18 11 Sudoeste 28 Sudoeste 0 -- -- 30
2019-06-14 21:00:00 20.5 8 Sudoeste 39 Sudoeste 0 -- -- 30
2019-06-14 20:00:00 23.1 11 Sudoeste 40 Sur 0 -- -- 26
2019-06-14 19:00:00 24.5 13 Sudoeste 36 Oeste 0 -- -- 26
2019-06-14 18:00:00 25.5 13 Sudoeste 39 Sudoeste 0 -- -- 27
2019-06-14 17:00:00 26 15 Oeste 39 Sudoeste 0 -- -- 24
2019-06-14 16:00:00 25.7 17 Sudoeste 38 Oeste 0 -- -- 29
2019-06-14 15:00:00 25.3 15 Sudoeste 36 Sudoeste 0 -- -- 29
2019-06-14 14:00:00 24.7 12 Sudoeste 34 Sudoeste 0 -- -- 37
2019-06-14 13:00:00 24.2 13 Sudoeste 35 Sudoeste 0 -- -- 38
2019-06-14 12:00:00 23 9 Sudoeste 28 Sur 0 -- -- 36
2019-06-14 11:00:00 21.7 11 Sudoeste 26 Oeste 0 -- -- 35
2019-06-14 10:00:00 19.5 11 Sudoeste 27 Sudoeste 0 -- -- 41
2019-06-14 09:00:00 15.4 6 Sudoeste 20 Sudoeste 0 -- -- 59
2019-06-14 08:00:00 15.4 7 Sudoeste 22 Sudoeste 0 -- -- 58
2019-06-14 07:00:00 15.7 9 Sudoeste 27 Sudoeste 0 -- -- 55
2019-06-14 06:00:00 16.4 8 Sudoeste 22 Sudoeste 0 -- -- 44
2019-06-14 05:00:00 17.4 9 Sudoeste 22 Oeste 0 -- -- 45
2019-06-14 04:00:00 18.2 8 Sudoeste 20 Sudoeste 0 -- -- 55
2019-06-14 03:00:00 16.5 7 Sur 15 Sur 0 -- -- 68
2019-06-14 02:00:00 16.3 4 Sur 12 Sudoeste 0 -- -- 73
2019-06-14 01:00:00 16.5 3 Sudoeste 16 Sudeste 0 -- -- 72
2019-06-14 00:00:00 16.4 5 Sudeste 20 Sudeste 0 -- -- 72
2019-06-13 23:00:00 16.8 5 Este 23 Este 0 -- -- 69
2019-06-13 22:00:00 18 7 Este 25 Este 0 -- -- 65
2019-06-13 21:00:00 19.9 10 Este 27 Este 0 -- -- 60
2019-06-13 20:00:00 22.3 10 Este 30 Este 0 -- -- 54
2019-06-13 19:00:00 24.7 8 Este 24 Nordeste 0 -- -- 41
2019-06-13 18:00:00 25 6 Este 23 Este 0 -- -- 44
2019-06-13 17:00:00 25.4 8 Sudeste 21 Sur 0 -- -- 43
2019-06-13 16:00:00 25 5 Este 18 Nordeste 0 -- -- 43
2019-06-13 15:00:00 24.3 8 Sur 19 Sur 0 -- -- 46
2019-06-13 14:00:00 21.7 5 Sur 22 Nordeste 0 -- -- 56
2019-06-13 13:00:00 21.8 6 Sudeste 21 Este 0 -- -- 54
2019-06-13 12:00:00 20.8 8 Sudeste 21 Sur 0 -- -- 54
2019-06-13 11:00:00 20.2 5 Sudeste 19 Sudeste 0 -- -- 57
2019-06-13 10:00:00 18.9 5 Sudeste 18 Sudeste 0 -- -- 60
2019-06-13 09:00:00 16.3 3 Sudeste 13 Sur 0 -- -- 72
2019-06-13 08:00:00 12 5 Sur 11 Sudoeste 0 -- -- 89
2019-06-13 07:00:00 9.7 0 Calma 6 Sudeste 0 -- -- 93
2019-06-13 06:00:00 10.5 0 Calma 6 Sudoeste 0 -- -- 88
2019-06-13 05:00:00 12.3 3 Sur 18 Sudoeste 0 -- -- 84
2019-06-13 04:00:00 12.9 8 Sur 17 Sudoeste 0 -- -- 83
2019-06-13 03:00:00 12.8 3 Sudoeste 11 Nordeste 0 -- -- 82
2019-06-13 02:00:00 14 2 Norte 17 Sudeste 0 -- -- 75
2019-06-13 01:00:00 15 5 Sur 22 Sur 0 -- -- 71
2019-06-13 00:00:00 15.5 9 Sur 20 Sur 0 -- -- 67
2019-06-12 23:00:00 16.2 6 Sur 19 Sur 0 -- -- 61
2019-06-12 22:00:00 17.9 6 Sur 18 Sur 0 -- -- 53
2019-06-12 21:00:00 21.2 4 Sudoeste 14 Oeste 0 -- -- 38
2019-06-12 20:00:00 23.5 6 Sur 21 Sudoeste 0 -- -- 32
2019-06-12 19:00:00 22.5 7 Sudoeste 19 Sudoeste 0 -- -- 34
2019-06-12 18:00:00 24.1 7 Sur 17 Sur 0 -- -- 32
2019-06-12 17:00:00 24.3 3 Este 19 Oeste 0 -- -- 26
2019-06-12 16:00:00 24.9 7 Oeste 26 Sudoeste 0 -- -- 24
2019-06-12 15:00:00 24 6 Noroeste 22 Oeste 0 -- -- 25
2019-06-12 14:00:00 23.4 10 Oeste 25 Sudoeste 0 -- -- 28
2019-06-12 13:00:00 20 3 Nordeste 14 Norte 0 -- -- 46
2019-06-12 12:00:00 19.6 5 Sudeste 16 Este 0 -- -- 45
2019-06-12 11:00:00 17.5 8 Este 20 Nordeste 0 -- -- 53
2019-06-12 10:00:00 15.6 6 Este 19 Este 0 -- -- 56
2019-06-12 09:00:00 13.8 6 Sudeste 24 Sudeste 0 -- -- 60
2019-06-12 08:00:00 10.1 6 Sudeste 16 Este 0 -- -- 71
2019-06-12 07:00:00 7.2 0 Calma 5 Sudeste 0 -- -- 86
2019-06-12 06:00:00 7.6 2 Sur 9 Sudeste 0 -- -- 88
2019-06-12 05:00:00 7.8 0 Calma 8 Sudeste 0 -- -- 87
2019-06-12 04:00:00 8.4 0 Calma 5 Este 0 -- -- 82
2019-06-12 03:00:00 9.5 0 Calma 8 Sudeste 0 -- -- 79
2019-06-12 02:00:00 10 2 Sudeste 8 Este 0 -- -- 81
2019-06-12 01:00:00 11 3 Sur 13 Sudeste 0 -- -- 77
2019-06-12 00:00:00 12.3 3 Sudeste 14 Sudeste 0 -- -- 70
2019-06-11 23:00:00 14.2 6 Este 16 Este 0 -- -- 63
2019-06-11 22:00:00 16 8 Norte 22 Norte 0 -- -- 38
2019-06-11 21:00:00 17.4 8 Norte 27 Norte 0 -- -- 37
2019-06-11 20:00:00 18.7 15 Norte 29 Norte 0 -- -- 36
2019-06-11 19:00:00 19.5 17 Norte 29 Norte 0 -- -- 36
2019-06-11 18:00:00 20.5 16 Norte 35 Norte 0 -- -- 37
2019-06-11 17:00:00 21.3 16 Norte 37 Norte 0 -- -- 36
2019-06-11 16:00:00 20.7 14 Norte 35 Noroeste 0 -- -- 36
2019-06-11 15:00:00 22.2 14 Noroeste 32 Sudoeste 0 -- -- 35
2019-06-11 14:00:00 22.4 11 Noroeste 29 Oeste 0 -- -- 35
2019-06-11 13:00:00 21.4 12 Noroeste 33 Noroeste 0 -- -- 34
2019-06-11 12:00:00 21.4 11 Oeste 31 Oeste 0 -- -- 36
2019-06-11 11:00:00 20.3 8 Oeste 22 Oeste 0 -- -- 42
2019-06-11 10:00:00 18.2 9 Sudoeste 23 Sudoeste 0 -- -- 49
2019-06-11 09:00:00 15.2 10 Sudoeste 24 Oeste 0 -- -- 62
2019-06-11 08:00:00 12.2 9 Sudoeste 19 Sudoeste 0 -- -- 71
2019-06-11 07:00:00 10.6 6 Sudoeste 16 Sudoeste 0 -- -- 75
2019-06-11 06:00:00 10.6 6 Sur 15 Sudoeste 0 -- -- 71
2019-06-11 05:00:00 11.4 7 Sudoeste 15 Sudoeste 0 -- -- 61
2019-06-11 04:00:00 10.8 6 Sur 14 Sudoeste 0 -- -- 55
2019-06-11 03:00:00 12.3 6 Sur 14 Sudoeste 0 -- -- 51
2019-06-11 02:00:00 14.4 6 Sudoeste 15 Sudoeste 0 -- -- 45
2019-06-11 01:00:00 15.9 6 Sudoeste 17 Sudoeste 0 -- -- 41
2019-06-11 00:00:00 12.3 5 Sudoeste 13 Oeste 0 -- -- 52
2019-06-10 23:00:00 13.9 5 Sur 10 Sur 0 -- -- 47
2019-06-10 22:00:00 18.1 2 Sur 12 Oeste 0 -- -- 35
2019-06-10 21:00:00 21.9 6 Oeste 24 Sudoeste 0 -- -- 28
2019-06-10 20:00:00 23.9 8 Oeste 24 Noroeste 0 -- -- 24
2019-06-10 19:00:00 24.7 10 Noroeste 26 Noroeste 0 -- -- 23
2019-06-10 18:00:00 25.1 10 Noroeste 23 Noroeste 0 -- -- 25
2019-06-10 17:00:00 25.1 11 Noroeste 28 Oeste 0 -- -- 26
2019-06-10 16:00:00 25.4 9 Oeste 25 Oeste 0 -- -- 27
2019-06-10 15:00:00 23.7 11 Norte 23 Noroeste 0 -- -- 29
2019-06-10 14:00:00 23.8 8 Sudoeste 25 Noroeste 0 -- -- 29
2019-06-10 13:00:00 22.9 10 Noroeste 25 Noroeste 0 -- -- 31
2019-06-10 12:00:00 21.3 7 Noroeste 17 Norte 0 -- -- 36
2019-06-10 11:00:00 19.9 5 Oeste 15 Oeste 0 -- -- 39
2019-06-10 10:00:00 18.3 5 Sudoeste 17 Oeste 0 -- -- 44
2019-06-10 09:00:00 15.4 5 Sudoeste 13 Sudoeste 0 -- -- 52
2019-06-10 08:00:00 9.7 6 Sur 10 Sur 0 -- -- 69
2019-06-10 07:00:00 7.7 5 Sur 9 Sur 0 -- -- 72
2019-06-10 06:00:00 9.9 3 Sudoeste 12 Oeste 0 -- -- 66
2019-06-10 05:00:00 10.4 4 Oeste 14 Oeste 0 -- -- 62
2019-06-10 04:00:00 9.3 4 Sur 13 Sudoeste 0 -- -- 62
2019-06-10 03:00:00 9.9 5 Sur 8 Sur 0 -- -- 58
2019-06-10 02:00:00 11.7 4 Sur 12 Sudoeste 0 -- -- 50
2019-06-10 01:00:00 14.7 4 Sudoeste 15 Oeste 0 -- -- 43
2019-06-10 00:00:00 16.4 6 Sudoeste 15 Oeste 0 -- -- 33
2019-06-09 23:00:00 17.3 5 Oeste 13 Noroeste 0 -- -- 31
2019-06-09 22:00:00 19.7 3 Oeste 25 Oeste 0 -- -- 28
2019-06-09 21:00:00 22.2 7 Oeste 24 Norte 0 -- -- 27
2019-06-09 20:00:00 24.4 8 Oeste 24 Oeste 0 -- -- 29
2019-06-09 19:00:00 25.1 9 Sudoeste 30 Sudoeste 0 -- -- 31
2019-06-09 18:00:00 26.1 9 Oeste 30 Oeste 0 -- -- 28
2019-06-09 17:00:00 27.3 8 Sudoeste 29 Sudoeste 0 -- -- 26
2019-06-09 16:00:00 26.5 11 Oeste 29 Oeste 0 -- -- 25
2019-06-09 15:00:00 26 11 Noroeste 24 Oeste 0 -- -- 25
2019-06-09 14:00:00 25.3 6 Oeste 26 Oeste 0 -- -- 29
2019-06-09 13:00:00 24.5 9 Oeste 29 Sur 0 -- -- 33
2019-06-09 12:00:00 22.8 8 Oeste 24 Oeste 0 -- -- 38
2019-06-09 11:00:00 19.9 13 Sudoeste 28 Sudoeste 0 -- -- 49
2019-06-09 10:00:00 17.8 11 Sudoeste 23 Sudoeste 0 -- -- 58
2019-06-09 09:00:00 16.1 10 Sudoeste 22 Sur 0 -- -- 62
2019-06-09 08:00:00 15 9 Sudoeste 23 Sudoeste 0 -- -- 66
2019-06-09 07:00:00 15.2 9 Sudoeste 20 Sur 0 -- -- 65
2019-06-09 06:00:00 15.6 7 Sudoeste 18 Sudoeste 0 -- -- 63
2019-06-09 05:00:00 16.5 11 Sudoeste 25 Sudoeste 0 -- -- 59
2019-06-09 04:00:00 16.7 6 Sudoeste 21 Sudoeste 0 -- -- 58
2019-06-09 03:00:00 15.6 9 Sur 19 Sudoeste 0 -- -- 65
2019-06-09 02:00:00 14.1 0 Calma 12 Sudeste 0 -- -- 77
2019-06-09 01:00:00 14.6 2 Sur 21 Este 0 -- -- 75
2019-06-09 00:00:00 15.3 7 Sudeste 24 Este 0 -- -- 71
2019-06-08 23:00:00 16.4 7 Sudeste 24 Sudeste 0 -- -- 67
2019-06-08 22:00:00 18.1 8 Este 24 Nordeste 0 -- -- 63
2019-06-08 21:00:00 21.2 9 Sudeste 26 Sur 0 -- -- 55
2019-06-08 20:00:00 24 9 Sudeste 35 Sudeste 0 -- -- 48
2019-06-08 19:00:00 25.1 11 Sudeste 35 Este 0 -- -- 45
2019-06-08 18:00:00 25.6 14 Este 37 Sudeste 0 -- -- 39
2019-06-08 17:00:00 27.1 11 Sudeste 31 Sudeste 0 -- -- 35
2019-06-08 16:00:00 26.3 9 Este 36 Este 0 -- -- 36
2019-06-08 15:00:00 26 10 Sudeste 30 Este 0 -- -- 39
2019-06-08 14:00:00 24.6 13 Sudeste 33 Sudeste 0 -- -- 42
2019-06-08 13:00:00 23.3 10 Sudeste 36 Sudeste 0 -- -- 45
2019-06-08 12:00:00 21.8 12 Sudeste 33 Sudeste 0 -- -- 46
2019-06-08 11:00:00 19.5 11 Sudeste 32 Sudeste 0 -- -- 56
2019-06-08 10:00:00 17.8 9 Sudeste 30 Este 0 -- -- 58
2019-06-08 09:00:00 16.5 9 Sudeste 22 Sudeste 0 -- -- 57
2019-06-08 08:00:00 13 6 Sudeste 19 Sudeste 0 -- -- 68
2019-06-08 07:00:00 9 5 Sudeste 14 Sudeste 0 -- -- 63
2019-06-08 06:00:00 3.8 0 Calma 2 Sur 0 -- -- 69
2019-06-08 05:00:00 4.2 0 Calma 4 Sur 0 -- -- 69
2019-06-08 04:00:00 4.8 0 Calma 3 Sur 0 -- -- 66
2019-06-08 03:00:00 5.1 3 Sur 5 Sur 0 -- -- 65
2019-06-08 02:00:00 5.5 2 Sur 5 Sur 0 -- -- 62
2019-06-08 01:00:00 6.4 3 Sur 8 Sur 0 -- -- 58
2019-06-08 00:00:00 7.7 5 Sur 8 Sur 0 -- -- 54
2019-06-07 23:00:00 10.1 3 Sur 7 Sur 0 -- -- 48
2019-06-07 22:00:00 14.5 0 Calma 10 Norte 0 -- -- 34
2019-06-07 21:00:00 18.9 6 Norte 21 Norte 0 -- -- 24
2019-06-07 20:00:00 21 9 Norte 24 Noroeste 0 -- -- 22
2019-06-07 19:00:00 22.7 9 Oeste 25 Oeste 0 -- -- 21
2019-06-07 18:00:00 22.9 5 Oeste 23 Noroeste 0 -- -- 22
2019-06-07 17:00:00 22.7 7 Sudoeste 23 Oeste 0 -- -- 28
2019-06-07 16:00:00 22.2 8 Sudoeste 24 Oeste 0 -- -- 29
2019-06-07 15:00:00 21.3 10 Sudoeste 34 Oeste 0 -- -- 33
2019-06-07 14:00:00 20.3 13 Sudoeste 29 Oeste 0 -- -- 37
2019-06-07 13:00:00 18.7 13 Oeste 39 Oeste 0 -- -- 43
2019-06-07 12:00:00 16.7 11 Oeste 28 Noroeste 0 -- -- 53
2019-06-07 11:00:00 14.2 10 Oeste 30 Oeste 0 -- -- 64
2019-06-07 10:00:00 14.2 10 Oeste 28 Oeste 0 -- -- 68
2019-06-07 09:00:00 13.8 14 Sudoeste 32 Oeste 0 -- -- 68
2019-06-07 08:00:00 11.7 9 Sudoeste 23 Sur 0 -- -- 72
2019-06-07 07:00:00 9.7 10 Sudoeste 24 Sudoeste 0 -- -- 72
2019-06-07 06:00:00 10 9 Sudoeste 23 Sudoeste 0 -- -- 65
2019-06-07 05:00:00 10.6 8 Sudoeste 24 Sur 0 -- -- 54
2019-06-07 04:00:00 10.8 8 Sudoeste 21 Sudoeste 0 -- -- 45
2019-06-07 03:00:00 11.9 7 Sudoeste 20 Sur 0 -- -- 37
2019-06-07 02:00:00 9.2 7 Sur 16 Sur 0 -- -- 55
2019-06-07 01:00:00 10.8 2 Sur 9 Sur 0 -- -- 48
2019-06-07 00:00:00 12.2 5 Sur 11 Sur 0 -- -- 43
2019-06-06 23:00:00 14 5 Sur 11 Sudoeste 0 -- -- 34
2019-06-06 22:00:00 18 5 Sudoeste 22 Oeste 0 -- -- 25
2019-06-06 21:00:00 21.7 8 Sudoeste 30 Oeste 0 -- -- 24
2019-06-06 20:00:00 24.3 11 Sudoeste 37 Sudoeste 0 -- -- 23
2019-06-06 19:00:00 25.8 12 Sudoeste 33 Oeste 0 -- -- 21
2019-06-06 18:00:00 26.3 15 Sudoeste 38 Oeste 0 -- -- 17
2019-06-06 17:00:00 26.5 14 Sudoeste 37 Sur 0 -- -- 15
2019-06-06 16:00:00 26.2 14 Sudoeste 33 Oeste 0 -- -- 16
2019-06-06 15:00:00 25 12 Sudoeste 32 Sudoeste 0 -- -- 22
2019-06-06 14:00:00 23.7 12 Sudoeste 35 Sur 0 -- -- 24
2019-06-06 13:00:00 22.3 7 Sudoeste 21 Sur 0 -- -- 30
2019-06-06 12:00:00 20.3 7 Sur 23 Sudoeste 0 -- -- 34
2019-06-06 11:00:00 18.3 6 Sudoeste 17 Sur 0 -- -- 39
2019-06-06 10:00:00 16.9 3 Sur 9 Sur 0 -- -- 40
2019-06-06 09:00:00 13 3 Sudoeste 9 Sudoeste 0 -- -- 49
2019-06-06 08:00:00 5.7 5 Sur 7 Sur 0 -- -- 79
2019-06-06 07:00:00 3.7 5 Sur 8 Sur 0 -- -- 79
2019-06-06 06:00:00 4 5 Sur 10 Sudoeste 0 -- -- 76
2019-06-06 05:00:00 4.3 5 Sur 8 Sur 0 -- -- 76
2019-06-06 04:00:00 5.1 3 Sur 9 Sur 0 -- -- 72
2019-06-06 03:00:00 6.1 3 Sur 8 Sur 0 -- -- 69
2019-06-06 02:00:00 7.2 3 Sur 6 Sur 0 -- -- 64
2019-06-06 01:00:00 7.7 3 Sur 8 Sur 0 -- -- 60
2019-06-06 00:00:00 8.7 4 Sur 8 Sur 0 -- -- 56
2019-06-05 23:00:00 10.7 5 Sur 7 Sur 0 -- -- 49
2019-06-05 22:00:00 14.1 3 Sudoeste 16 Oeste 0 -- -- 39
2019-06-05 21:00:00 17.2 4 Oeste 23 Oeste 0 -- -- 33
2019-06-05 20:00:00 19.3 8 Oeste 22 Noroeste 0 -- -- 30
2019-06-05 19:00:00 20.1 8 Oeste 23 Sudoeste 0 -- -- 30
2019-06-05 18:00:00 20.1 9 Noroeste 27 Oeste 0 -- -- 31
2019-06-05 17:00:00 20.3 12 Noroeste 31 Noroeste 0 -- -- 30
2019-06-05 16:00:00 20.8 14 Noroeste 38 Oeste 0 -- -- 31
2019-06-05 15:00:00 20 14 Oeste 36 Noroeste 0 -- -- 32
2019-06-05 14:00:00 19.2 14 Noroeste 35 Oeste 0 -- -- 35
2019-06-05 13:00:00 17.5 13 Noroeste 37 Norte 0 -- -- 40
2019-06-05 12:00:00 16.2 13 Noroeste 52 Oeste 0 -- -- 46
2019-06-05 11:00:00 15.5 15 Oeste 36 Oeste 0 -- -- 46
2019-06-05 10:00:00 14 17 Oeste 36 Oeste 0 -- -- 46
2019-06-05 09:00:00 12.7 14 Oeste 42 Oeste 0 -- -- 55
2019-06-05 08:00:00 12.6 12 Oeste 35 Oeste 0 -- -- 63
2019-06-05 07:00:00 13.2 8 Oeste 30 Oeste 0 -- -- 71
2019-06-05 06:00:00 13.9 12 Oeste 31 Oeste 0 -- -- 68
2019-06-05 05:00:00 15.4 6 Oeste 25 Oeste 0 -- -- 72
2019-06-05 04:00:00 17 5 Sudoeste 18 Oeste 0 -- -- 63
2019-06-05 03:00:00 17 6 Sudoeste 15 Sudoeste 0 -- -- 61
2019-06-05 02:00:00 16.7 4 Sudoeste 15 Oeste 0 -- -- 59
2019-06-05 01:00:00 18 3 Sudoeste 19 Sudoeste 0 -- -- 52
2019-06-05 00:00:00 19.8 8 Sudoeste 23 Sudoeste 0 -- -- 46
2019-06-04 23:00:00 20.7 10 Sudoeste 24 Sudoeste 0 -- -- 42
2019-06-04 22:00:00 22 7 Sudoeste 26 Sudoeste 0 -- -- 37
2019-06-04 21:00:00 24.4 9 Sudoeste 31 Sur 0 -- -- 33
2019-06-04 20:00:00 26 10 Sudoeste 34 Sudoeste 0 -- -- 27
2019-06-04 19:00:00 28.3 13 Sudoeste 33 Sudoeste 0 -- -- 21
2019-06-04 18:00:00 29.6 15 Sudoeste 33 Sudoeste 0 -- -- 22
2019-06-04 17:00:00 30.1 14 Sudoeste 35 Sudoeste 0 -- -- 21
2019-06-04 16:00:00 30.1 13 Sudoeste 32 Sudoeste 0 -- -- 22
2019-06-04 15:00:00 30.1 12 Sudoeste 35 Sur 0 -- -- 22
2019-06-04 14:00:00 29.2 16 Sudoeste 34 Sudoeste 0 -- -- 21
2019-06-04 13:00:00 28.4 13 Sudoeste 31 Sur 0 -- -- 24
2019-06-04 12:00:00 27.2 12 Sudoeste 30 Sudoeste 0 -- -- 28
2019-06-04 11:00:00 25.6 10 Sudoeste 23 Sudoeste 0 -- -- 33
2019-06-04 10:00:00 23.1 8 Sudoeste 26 Sudoeste 0 -- -- 39
2019-06-04 09:00:00 19.9 12 Sudoeste 27 Sudoeste 0 -- -- 42
2019-06-04 08:00:00 16.6 8 Sudoeste 20 Sudoeste 0 -- -- 50
2019-06-04 07:00:00 15.5 10 Sudoeste 26 Sudoeste 0 -- -- 49
2019-06-04 06:00:00 15.8 11 Sudoeste 24 Sudoeste 0 -- -- 46
2019-06-04 05:00:00 17 10 Sudoeste 23 Sudoeste 0 -- -- 42
2019-06-04 04:00:00 16.9 10 Sudoeste 23 Sudoeste 0 -- -- 40
2019-06-04 03:00:00 16.1 8 Sur 15 Sudoeste 0 -- -- 45
2019-06-04 02:00:00 16 7 Sur 15 Sudoeste 0 -- -- 46
2019-06-04 01:00:00 15.5 2 Sur 5 Sur 0 -- -- 57
2019-06-04 00:00:00 18.3 5 Sur 13 Sur 0 -- -- 47
2019-06-03 23:00:00 18.5 6 Sudoeste 18 Sur 0 -- -- 47
2019-06-03 22:00:00 21.7 6 Sur 9 Sudoeste 0 -- -- 34
2019-06-03 21:00:00 27 6 Sudoeste 23 Sudoeste 0 -- -- 24
2019-06-03 20:00:00 30.1 7 Sudoeste 20 Sudoeste 0 -- -- 21
2019-06-03 19:00:00 31.3 7 Sudoeste 32 Sur 0 -- -- 20
2019-06-03 18:00:00 31.7 8 Noroeste 22 Sudoeste 0 -- -- 19
2019-06-03 17:00:00 31.9 4 Sudoeste 29 Oeste 0 -- -- 25
2019-06-03 16:00:00 31.2 8 Sudoeste 23 Sudoeste 0 -- -- 22
2019-06-03 15:00:00 31.6 10 Sudoeste 21 Sudoeste 0 -- -- 23
2019-06-03 14:00:00 30.4 7 Oeste 23 Sudoeste 0 -- -- 22
2019-06-03 13:00:00 29.9 8 Oeste 17 Noroeste 0 -- -- 24
2019-06-03 12:00:00 28.4 7 Oeste 18 Sudoeste 0 -- -- 25
2019-06-03 11:00:00 27.1 8 Oeste 23 Oeste 0 -- -- 29
2019-06-03 10:00:00 24 7 Sudoeste 20 Sudoeste 0 -- -- 33
2019-06-03 09:00:00 20.7 6 Sudoeste 21 Sur 0 -- -- 38
2019-06-03 08:00:00 18.4 10 Sudoeste 24 Sudoeste 0 -- -- 40
2019-06-03 07:00:00 17.2 8 Sudoeste 20 Sur 0 -- -- 40
2019-06-03 06:00:00 17.7 10 Sudoeste 25 Sudoeste 0 -- -- 38
2019-06-03 05:00:00 18.1 8 Sudoeste 28 Sudoeste 0 -- -- 37
2019-06-03 04:00:00 18.6 10 Sudoeste 25 Sudoeste 0 -- -- 39
2019-06-03 03:00:00 16.7 9 Sur 22 Sudoeste 0 -- -- 44
2019-06-03 02:00:00 16.1 6 Sur 17 Oeste 0 -- -- 47
2019-06-03 01:00:00 15.7 6 Sur 15 Sudoeste 0 -- -- 51
2019-06-03 00:00:00 16 4 Sur 12 Sudoeste 0 -- -- 52
2019-06-02 23:00:00 17.5 4 Sur 8 Sur 0 -- -- 51
2019-06-02 22:00:00 21.1 4 Sur 12 Sur 0 -- -- 41
2019-06-02 21:00:00 25.9 2 Sudeste 13 Sudeste 0 -- -- 29
2019-06-02 20:00:00 28.7 6 Sudeste 17 Este 0 -- -- 26
2019-06-02 19:00:00 29.5 5 Este 26 Sudeste 0 -- -- 26
2019-06-02 18:00:00 30.2 3 Sudeste 15 Sudeste 0 -- -- 25
2019-06-02 17:00:00 30.2 5 Este 18 Nordeste 0 -- -- 24
2019-06-02 16:00:00 29.8 9 Norte 20 Norte 0 -- -- 25
2019-06-02 15:00:00 29.2 4 Este 18 Norte 0 -- -- 26
2019-06-02 14:00:00 28.5 7 Norte 13 Nordeste 0 -- -- 29
2019-06-02 13:00:00 27.5 4 Nordeste 14 Norte 0 -- -- 31
2019-06-02 12:00:00 27.1 3 Noroeste 14 Oeste 0 -- -- 30
2019-06-02 11:00:00 24.9 4 Noroeste 12 Noroeste 0 -- -- 31
2019-06-02 10:00:00 23.3 5 Oeste 14 Oeste 0 -- -- 37
2019-06-02 09:00:00 17.6 2 Sudeste 6 Sur 0 -- -- 64
2019-06-02 08:00:00 9.7 4 Sur 7 Sur 0 -- -- 80
2019-06-02 07:00:00 8.4 3 Sur 6 Sur 0 -- -- 78
2019-06-02 06:00:00 8.8 4 Sur 6 Sur 0 -- -- 76
2019-06-02 05:00:00 9.9 0 Calma 3 Sur 0 -- -- 69
2019-06-02 04:00:00 9.4 2 Sur 8 Sur 0 -- -- 73
2019-06-02 03:00:00 8.8 0 Calma 4 Sur 0 -- -- 71
2019-06-02 02:00:00 9.8 0 Calma 4 Sur 0 -- -- 67
2019-06-02 01:00:00 11.3 3 Sur 6 Sur 0 -- -- 65
2019-06-02 00:00:00 13 3 Sur 5 Sur 0 -- -- 56
2019-06-01 23:00:00 15.5 3 Sur 6 Sur 0 -- -- 49
2019-06-01 22:00:00 19 2 Sur 10 Sur 0 -- -- 41
2019-06-01 21:00:00 23.7 2 Sudeste 14 Sudeste 0 -- -- 33
2019-06-01 20:00:00 26.5 4 Sudeste 14 Este 0 -- -- 30
2019-06-01 19:00:00 27 6 Este 22 Nordeste 0 -- -- 27
2019-06-01 18:00:00 27.5 6 Este 24 Sudeste 0 -- -- 28
2019-06-01 17:00:00 27.4 8 Este 24 Este 0 -- -- 28
2019-06-01 16:00:00 27 10 Este 31 Este 0 -- -- 26
2019-06-01 15:00:00 26.6 7 Este 19 Este 0 -- -- 25
2019-06-01 14:00:00 25.8 8 Este 26 Este 0 -- -- 28
2019-06-01 13:00:00 24.9 9 Sudeste 26 Este 0 -- -- 33
2019-06-01 12:00:00 23.5 8 Este -- -- 0 -- -- 38
2019-06-01 11:00:00 -- -- -- -- -- -- -- -- --
2019-06-01 10:00:00 20.7 7 Este 15 Este 0 -- -- 47
2019-06-01 09:00:00 17.3 5 Este 11 Este 0 -- -- 61
2019-06-01 08:00:00 10.2 2 Sur 4 Sudeste 0 -- -- 85
2019-06-01 07:00:00 6.3 2 Sudoeste 4 Sur 0 -- -- 88
2019-06-01 06:00:00 6.5 3 Sur 4 Sur 0 -- -- 86
2019-06-01 05:00:00 7.1 0 Calma 4 Sur 0 -- -- 83
2019-06-01 04:00:00 7.7 0 Calma 3 Sudoeste 0 -- -- 80
2019-06-01 03:00:00 8.7 0 Calma 3 Sur 0 -- -- 74
2019-06-01 02:00:00 9.9 0 Calma 5 Sur 0 -- -- 69
2019-06-01 01:00:00 11 0 Calma 3 Sudoeste 0 -- -- 64
2019-06-01 00:00:00 12.4 2 Sur 6 Sudoeste 0 -- -- 59
2019-05-31 23:00:00 14.3 3 Sur 5 Sur 0 -- -- 54
2019-05-31 22:00:00 17.8 0 Calma 6 Sudeste 0 -- -- 43
2019-05-31 21:00:00 22 3 Sudeste 14 Sur 0 -- -- 36
2019-05-31 20:00:00 24.9 5 Sudeste 19 Este 0 -- -- 29
2019-05-31 19:00:00 25.6 8 Este 26 Sudeste 0 -- -- 28
2019-05-31 18:00:00 26.2 9 Este 25 Este 0 -- -- 27
2019-05-31 17:00:00 26.2 8 Este 23 Nordeste 0 -- -- 27
2019-05-31 16:00:00 25.9 9 Sudeste 26 Este 0 -- -- 29
2019-05-31 15:00:00 26 7 Sudeste 20 Este 0 -- -- 29
2019-05-31 14:00:00 25.1 9 Sudeste 25 Este 0 -- -- 32
2019-05-31 13:00:00 24.1 9 Este 23 Este 0 -- -- 32
2019-05-31 12:00:00 23.2 8 Sudeste 22 Sur 0 -- -- 41
2019-05-31 11:00:00 21.5 5 Sudeste 19 Este 0 -- -- 41
2019-05-31 10:00:00 19.7 6 Este 22 Este 0 -- -- 44
2019-05-31 09:00:00 16.8 3 Este 14 Este 0 -- -- 59
2019-05-31 08:00:00 8.7 0 Calma 6 Este 0 -- -- 88
2019-05-31 07:00:00 7.2 2 Sur 3 Sur 0 -- -- 83
2019-05-31 06:00:00 8.2 2 Sur 5 Sur 0 -- -- 80
2019-05-31 05:00:00 8.8 3 Sur 7 Sur 0 -- -- 79
2019-05-31 04:00:00 8.9 2 Sur 6 Sudoeste 0 -- -- 77
2019-05-31 03:00:00 8.2 2 Sur 5 Sur 0 -- -- 77
2019-05-31 02:00:00 9 0 Calma 3 Sudoeste 0 -- -- 74
2019-05-31 01:00:00 10.2 0 Calma 2 Sur 0 -- -- 68
2019-05-31 00:00:00 11.8 2 Sur 5 Sur 0 -- -- 64
2019-05-30 23:00:00 13.5 2 Sur 6 Sur 0 -- -- 58
2019-05-30 22:00:00 16.9 0 Calma 4 Sur 0 -- -- 47
2019-05-30 21:00:00 21.1 0 Calma 12 Sudeste 0 -- -- 37
2019-05-30 20:00:00 23.5 5 Sudeste 22 Este 0 -- -- 33
2019-05-30 19:00:00 24.1 7 Este 26 Este 0 -- -- 30
2019-05-30 18:00:00 24.5 8 Este 26 Este 0 -- -- 28
2019-05-30 17:00:00 24.7 9 Este 26 Este 0 -- -- 30
2019-05-30 16:00:00 24.2 8 Este 23 Este 0 -- -- 31
2019-05-30 15:00:00 24 10 Este 23 Este 0 -- -- 29
2019-05-30 14:00:00 23.3 9 Este 27 Sudeste 0 -- -- 32
2019-05-30 13:00:00 22.4 6 Este 27 Sur 0 -- -- 36
2019-05-30 12:00:00 20.6 6 Este 19 Este 0 -- -- 40
2019-05-30 11:00:00 19.6 6 Sudeste 19 Este 0 -- -- 46
2019-05-30 10:00:00 17.6 5 Sudeste 15 Sudeste 0 -- -- 54
2019-05-30 09:00:00 14.4 6 Este 14 Este 0 -- -- 62
2019-05-30 08:00:00 7.7 2 Este 7 Sudeste 0 -- -- 88
2019-05-30 07:00:00 7.3 0 Calma 4 Este 0 -- -- 81
2019-05-30 06:00:00 9.3 0 Calma 7 Sudeste 0 -- -- 76
2019-05-30 05:00:00 8.8 2 Sur 6 Sudeste 0 -- -- 77
2019-05-30 04:00:00 7.8 0 Calma 6 Sur 0 -- -- 80
2019-05-30 03:00:00 7.6 3 Sur 5 Sudeste 0 -- -- 73
2019-05-30 02:00:00 8.5 0 Calma 3 Sudoeste 0 -- -- 70
2019-05-30 01:00:00 10.8 0 Calma 6 Sur 0 -- -- 60
2019-05-30 00:00:00 14 0 Calma 7 Nordeste 0 -- -- 50
2019-05-29 23:00:00 17.5 4 Norte 24 Norte 0 -- -- 42
2019-05-29 22:00:00 19 9 Norte 19 Norte 0 -- -- 39
2019-05-29 21:00:00 21.3 8 Norte 22 Norte 0 -- -- 34
2019-05-29 20:00:00 23.5 3 Nordeste 12 Norte 0 -- -- 27
2019-05-29 19:00:00 23.7 4 Nordeste 17 Nordeste 0 -- -- 26
2019-05-29 18:00:00 23.6 8 Norte 22 Norte 0 -- -- 27
2019-05-29 17:00:00 22.8 9 Norte 23 Norte 0 -- -- 28
2019-05-29 16:00:00 22.1 6 Norte 22 Noroeste 0 -- -- 29
2019-05-29 15:00:00 21 10 Norte 20 Norte 0 -- -- 31
2019-05-29 14:00:00 19.9 7 Norte 17 Nordeste 0 -- -- 34
2019-05-29 13:00:00 18.6 5 Norte 13 Norte 0 -- -- 36
2019-05-29 12:00:00 16.5 5 Nordeste 15 Este 0 -- -- 41
2019-05-29 11:00:00 14.9 5 Nordeste 14 Nordeste 0 -- -- 47
2019-05-29 10:00:00 13.8 5 Nordeste 15 Este 0 -- -- 54
2019-05-29 09:00:00 11.9 3 Este 12 Nordeste 0 -- -- 67
2019-05-29 08:00:00 4.8 0 Calma 5 Sur 0 -- -- 92
2019-05-29 07:00:00 3.8 2 Sur 7 Sudoeste 0 -- -- 89
2019-05-29 06:00:00 4.4 3 Sur 6 Sur 0 -- -- 88
2019-05-29 05:00:00 5.4 3 Sur 5 Sur 0 -- -- 86
2019-05-29 04:00:00 6.9 3 Sur 5 Sur 0 -- -- 83
2019-05-29 03:00:00 8.7 2 Sur 4 Sur 0 -- -- 77
2019-05-29 02:00:00 10.5 0 Calma 4 Norte 0 -- -- 69
2019-05-29 01:00:00 12.1 3 Nordeste 11 Este 0 -- -- 62
2019-05-29 00:00:00 10.6 4 Sur 8 Sur 0 -- -- 59
2019-05-28 23:00:00 13.4 4 Sur 7 Sur 0 -- -- 53
2019-05-28 22:00:00 17.8 3 Nordeste 18 Nordeste 0 -- -- 36
2019-05-28 21:00:00 20.8 9 Norte 27 Norte 0 -- -- 29
2019-05-28 20:00:00 23.4 11 Norte 25 Norte 0 -- -- 23
2019-05-28 19:00:00 24.8 10 Norte 29 Norte 0 -- -- 26
2019-05-28 18:00:00 25.6 9 Noroeste 32 Noroeste 0 -- -- 27
2019-05-28 17:00:00 25.2 14 Noroeste 31 Noroeste 0 -- -- 29
2019-05-28 16:00:00 25.2 9 Noroeste 31 Noroeste 0 -- -- 33
2019-05-28 15:00:00 24.5 15 Norte 27 Norte 0 -- -- 37
2019-05-28 14:00:00 23.8 9 Norte 30 Norte 0 -- -- 42
2019-05-28 13:00:00 22.6 9 Norte 24 Norte 0 -- -- 46
2019-05-28 12:00:00 21.9 9 Norte 24 Norte 0 -- -- 47
2019-05-28 11:00:00 21 8 Norte 17 Noroeste 0 -- -- 47
2019-05-28 10:00:00 19.2 3 Nordeste 6 Nordeste 0 -- -- 58
2019-05-28 09:00:00 15 0 Calma 3 Sur 0 -- -- 79
2019-05-28 08:00:00 9 3 Sur 5 Sur 0 -- -- 91
2019-05-28 07:00:00 7.8 3 Sur 5 Sur 0 -- -- 88
2019-05-28 06:00:00 8.5 0 Calma 5 Sur 0 -- -- 85
2019-05-28 05:00:00 9.9 0 Calma 4 Norte 0 -- -- 81
2019-05-28 04:00:00 11.8 3 Nordeste 7 Norte 0 -- -- 75
2019-05-28 03:00:00 13.7 2 Nordeste 10 Este 0 -- -- 69
2019-05-28 02:00:00 14.4 3 Este 13 Sudeste 0 -- -- 74
2019-05-28 01:00:00 13.3 3 Este 13 Este 0 -- -- 77
2019-05-28 00:00:00 12.8 4 Sur 10 Sur 0 -- -- 68
2019-05-27 23:00:00 14.8 5 Sur 10 Sur 0 -- -- 64
2019-05-27 22:00:00 18.4 3 Sur 5 Sur 0 -- -- 52
2019-05-27 21:00:00 23.3 2 Noroeste 18 Norte 0 -- -- 39
2019-05-27 20:00:00 25.2 9 Norte 22 Norte 0 -- -- 33
2019-05-27 19:00:00 25 9 Noroeste 22 Sudoeste 0 -- -- 33
2019-05-27 18:00:00 26 11 Norte 28 Noroeste 0 -- -- 32
2019-05-27 17:00:00 24.8 11 Noroeste 26 Norte 0 -- -- 34
2019-05-27 16:00:00 25.4 13 Noroeste 29 Norte 0 -- -- 34
2019-05-27 15:00:00 24.9 13 Noroeste 28 Noroeste 0 -- -- 39
2019-05-27 14:00:00 23.7 9 Noroeste 23 Norte 0 -- -- 40
2019-05-27 13:00:00 22.3 11 Norte 23 Norte 0 -- -- 41
2019-05-27 12:00:00 20.6 8 Norte 15 Norte 0 -- -- 43
2019-05-27 11:00:00 18.2 6 Noroeste 13 Noroeste 0 -- -- 54
2019-05-27 10:00:00 16.5 5 Noroeste 14 Noroeste 0 -- -- 62
2019-05-27 09:00:00 14.9 8 Noroeste 15 Norte 0 -- -- 70
2019-05-27 08:00:00 6.2 3 Sur 7 Sur 0 -- -- 93
2019-05-27 07:00:00 5.2 4 Sur 7 Sur 0 -- -- 90
2019-05-27 06:00:00 5.8 3 Sur 8 Sur 0 -- -- 88
2019-05-27 05:00:00 6.3 3 Sur 8 Sur 0 -- -- 87
2019-05-27 04:00:00 6.7 3 Sur 7 Sur 0 -- -- 84
2019-05-27 03:00:00 7.1 4 Sur 9 Sudoeste 0 -- -- 80
2019-05-27 02:00:00 7.8 3 Sur 7 Sur 0 -- -- 75
2019-05-27 01:00:00 9.1 3 Sur 8 Sur 0 -- -- 69
2019-05-27 00:00:00 11.1 3 Sur 7 Sur 0 -- -- 61
2019-05-26 23:00:00 14.1 0 Calma 6 Norte 0 -- -- 49
2019-05-26 22:00:00 18.2 5 Norte 16 Norte 0 -- -- 37
2019-05-26 21:00:00 20.3 8 Norte 22 Norte 0 -- -- 34
2019-05-26 20:00:00 22.1 11 Norte 26 Norte 0 -- -- 32
2019-05-26 19:00:00 22.8 11 Norte 28 Noroeste 0 -- -- 31
2019-05-26 18:00:00 23 10 Noroeste 29 Norte 0 -- -- 30
2019-05-26 17:00:00 22.6 9 Norte 26 Norte 0 -- -- 31
2019-05-26 16:00:00 21.9 10 Noroeste 28 Norte 0 -- -- 34
2019-05-26 15:00:00 21.4 10 Noroeste 28 Noroeste 0 -- -- 31
2019-05-26 14:00:00 20 11 Norte 21 Norte 0 -- -- 37
2019-05-26 13:00:00 18.9 8 Noroeste 24 Norte 0 -- -- 49
2019-05-26 12:00:00 17.2 9 Norte 18 Noroeste 0 -- -- 58
2019-05-26 11:00:00 16.5 4 Norte 13 Nordeste 0 -- -- 65
2019-05-26 10:00:00 14.4 5 Nordeste 10 Este 0 -- -- 67
2019-05-26 09:00:00 12.3 2 Nordeste 11 Norte 0 -- -- 79
2019-05-26 08:00:00 5.9 0 Calma 4 Sur 0 -- -- 96
2019-05-26 07:00:00 4.9 2 Sur 5 Sur 0 -- -- 93
2019-05-26 06:00:00 5.6 0 Calma 6 Sur 0 -- -- 91
2019-05-26 05:00:00 6.4 0 Calma 6 Sur 0 -- -- 91
2019-05-26 04:00:00 6.9 3 Sur 6 Sur 0 -- -- 88
2019-05-26 03:00:00 7.7 3 Sur 6 Sudoeste 0 -- -- 86
2019-05-26 02:00:00 8.7 3 Sur 7 Sur 0 -- -- 82
2019-05-26 01:00:00 9.9 2 Sur 5 Sur 0 -- -- 77
2019-05-26 00:00:00 10.7 3 Sur 4 Sur 0 -- -- 73
2019-05-25 23:00:00 12.3 2 Sur 5 Sur 0 -- -- 66
2019-05-25 22:00:00 14.8 3 Sur 5 Sur 0 -- -- 59
2019-05-25 21:00:00 18.2 2 Nordeste 13 Este 0 -- -- 46
2019-05-25 20:00:00 20 6 Nordeste 16 Nordeste 0 -- -- 40
2019-05-25 19:00:00 20.9 6 Nordeste 18 Norte 0 -- -- 41
2019-05-25 18:00:00 20 7 Nordeste 19 Norte 0 -- -- 42
2019-05-25 17:00:00 21.2 8 Nordeste 24 Nordeste 0 -- -- 42
2019-05-25 16:00:00 20.4 9 Nordeste 24 Norte 0 -- -- 45
2019-05-25 15:00:00 19.5 8 Norte 20 Norte 0 -- -- 53
2019-05-25 14:00:00 18.3 9 Norte 22 Norte 0 -- -- 56
2019-05-25 13:00:00 17 10 Norte 22 Nordeste 0 -- -- 57
2019-05-25 12:00:00 15.8 8 Nordeste 23 Nordeste 0 -- -- 61
2019-05-25 11:00:00 14.7 9 Nordeste 21 Nordeste 0 -- -- 65
2019-05-25 10:00:00 13.5 6 Nordeste 13 Nordeste 0 -- -- 70
2019-05-25 09:00:00 11.7 8 Norte 12 Norte 0 -- -- 81
2019-05-25 08:00:00 8.3 0 Calma 3 Sur 0 -- -- 99
2019-05-25 07:00:00 6.3 0 Calma 3 Sur 0 -- -- 98
2019-05-25 06:00:00 5.6 2 Sur 4 Sur 0 -- -- 97
2019-05-25 05:00:00 4.8 0 Calma 4 Sur 0 -- -- 95
2019-05-25 04:00:00 5.3 2 Sur 6 Sur 0 -- -- 94
2019-05-25 03:00:00 6.3 2 Sur 5 Sur 0 -- -- 92
2019-05-25 02:00:00 7.7 3 Sur 4 Sur 0 -- -- 91
2019-05-25 01:00:00 9.3 0 Calma 3 Sur 0 -- -- 89
2019-05-25 00:00:00 10.9 0 Calma 5 Este 0 -- -- 89
2019-05-24 23:00:00 12.1 3 Sudeste 15 Sudeste 0 -- -- 89
2019-05-24 22:00:00 12.7 3 Sudeste 21 Este 0 -- -- 85
2019-05-24 21:00:00 14.3 8 Este 27 Este 0 -- -- 79
2019-05-24 20:00:00 16.3 9 Este 31 Este 0 -- -- 76
2019-05-24 19:00:00 17.6 9 Este 28 Este 0 -- -- 71
2019-05-24 18:00:00 17.3 9 Este 32 Este 0 -- -- 74
2019-05-24 17:00:00 16.8 11 Este 46 Norte 0 -- -- 77
2019-05-24 16:00:00 19.9 10 Este 29 Este 0 -- -- 60
2019-05-24 15:00:00 22.5 9 Nordeste 22 Nordeste 0 -- -- 46
2019-05-24 14:00:00 22 5 Norte 18 Noroeste 0 -- -- 40
2019-05-24 13:00:00 22.5 8 Oeste 21 Noroeste 0 -- -- 42
2019-05-24 12:00:00 20.5 5 Oeste 17 Sudoeste 0 -- -- 49
2019-05-24 11:00:00 19.6 9 Noroeste 17 Oeste 0 -- -- 50
2019-05-24 10:00:00 17.5 7 Oeste 19 Sur 0 -- -- 55
2019-05-24 09:00:00 15 6 Sudoeste 14 Sudoeste 0 -- -- 62
2019-05-24 08:00:00 13.2 4 Sudoeste 6 Sudoeste 0 -- -- 68
2019-05-24 07:00:00 13.9 4 Sudoeste 12 Sudoeste 0 -- -- 65
2019-05-24 06:00:00 14.7 6 Sudoeste 16 Sudoeste 0 -- -- 58
2019-05-24 05:00:00 13.7 6 Sudoeste 13 Sudoeste 0 -- -- 64
2019-05-24 04:00:00 12 5 Sur 9 Sur 0 -- -- 73
2019-05-24 03:00:00 12.5 4 Sur 8 Sur 0 -- -- 74
2019-05-24 02:00:00 14.1 3 Sur 6 Sur 0 -- -- 69
2019-05-24 01:00:00 15.4 4 Sur 6 Sur 0 -- -- 67
2019-05-24 00:00:00 16.3 0 Calma 7 Sur 0 -- -- 63
2019-05-23 23:00:00 17.5 3 Sur 5 Sur 0 -- -- 62
2019-05-23 22:00:00 19.1 3 Sur 5 Sur 0 -- -- 58
2019-05-23 21:00:00 21.9 3 Sur 8 Sudoeste 0 -- -- 46
2019-05-23 20:00:00 24.2 2 Sudoeste 19 Oeste 0 -- -- 37
2019-05-23 19:00:00 25.5 7 Sudoeste 18 Oeste 0 -- -- 31
2019-05-23 18:00:00 26.3 8 Oeste 23 Oeste 0 -- -- 31
2019-05-23 17:00:00 25.8 9 Sudoeste 23 Sudoeste 0 -- -- 33
2019-05-23 16:00:00 25.1 9 Oeste 24 Sur 0 -- -- 32
2019-05-23 15:00:00 25.4 9 Oeste 23 Oeste 0 -- -- 35
2019-05-23 14:00:00 25 8 Sudoeste 24 Oeste 0 -- -- 35
2019-05-23 13:00:00 24.9 8 Sudoeste 20 Oeste 0 -- -- 35
2019-05-23 12:00:00 24.2 9 Sudoeste 22 Oeste 0 -- -- 39
2019-05-23 11:00:00 21.9 7 Sudoeste 21 Oeste 0 -- -- 48
2019-05-23 10:00:00 18 8 Sudoeste 21 Sudoeste 0 -- -- 58
2019-05-23 09:00:00 16.3 9 Sudoeste 21 Sur 0 -- -- 62
2019-05-23 08:00:00 15.5 9 Sudoeste 20 Sudoeste 0 -- -- 63
2019-05-23 07:00:00 14.8 6 Sudoeste 15 Sudoeste 0 -- -- 61
2019-05-23 06:00:00 14 7 Sudoeste 17 Sudoeste 0 -- -- 63
2019-05-23 05:00:00 14.3 8 Sudoeste 19 Sudoeste 0 -- -- 61
2019-05-23 04:00:00 13.7 10 Sudoeste 23 Sudoeste 0 -- -- 64
2019-05-23 03:00:00 11.5 7 Sur 12 Sudoeste 0 -- -- 70
2019-05-23 02:00:00 11.2 4 Sudoeste 10 Sur 0 -- -- 70
2019-05-23 01:00:00 12.7 5 Sur 12 Sur 0 -- -- 66
2019-05-23 00:00:00 13.7 6 Sur 11 Sur 0 -- -- 64
2019-05-22 23:00:00 15 6 Sur 15 Sur 0 -- -- 61
2019-05-22 22:00:00 16.5 0 Calma 6 Sur 0 -- -- 58
2019-05-22 21:00:00 20.3 0 Calma 11 Norte 0 -- -- 46
2019-05-22 20:00:00 23.1 7 Norte 15 Norte 0 -- -- 37
2019-05-22 19:00:00 23.5 0 Calma 9 Norte 0 -- -- 34
2019-05-22 18:00:00 23.3 0 Calma 12 Norte 0 -- -- 38
2019-05-22 17:00:00 24.8 5 Oeste 15 Noroeste 0 -- -- 32
2019-05-22 16:00:00 23.8 8 Norte 17 Norte 0 -- -- 32
2019-05-22 15:00:00 22.9 5 Noroeste 16 Noroeste 0 -- -- 40
2019-05-22 14:00:00 23 4 Norte 16 Norte 0 -- -- 41
2019-05-22 13:00:00 22.8 6 Noroeste 17 Norte 0 -- -- 41
2019-05-22 12:00:00 21.3 4 Nordeste 17 Sudoeste 0 -- -- 46
2019-05-22 11:00:00 20.2 3 Sudoeste 10 Sur 0 -- -- 52
2019-05-22 10:00:00 18.4 7 Sudoeste 16 Sudoeste 0 -- -- 56
2019-05-22 09:00:00 14.5 6 Sur 17 Sur 0 -- -- 73
2019-05-22 08:00:00 11.5 5 Sur 15 Sudoeste 0 -- -- 85
2019-05-22 07:00:00 10.9 6 Sur 15 Sudoeste 0 -- -- 83
2019-05-22 06:00:00 10.3 5 Sur 12 Sur 0 -- -- 82
2019-05-22 05:00:00 10.3 4 Sur 9 Sudoeste 0 -- -- 80
2019-05-22 04:00:00 11.9 4 Sur 12 Sur 0 -- -- 78
2019-05-22 03:00:00 11.7 4 Sur 7 Sur 0 -- -- 81
2019-05-22 02:00:00 11.7 0 Calma 5 Sudoeste 0 -- -- 80
2019-05-22 01:00:00 12.7 3 Este 16 Sur 0 -- -- 77
2019-05-22 00:00:00 13.7 5 Norte 16 Sudeste 0 -- -- 73